createdAt,value
2022-11-04T00:01:54.238Z,10.20
2022-11-04T00:04:26.225Z,10.20
2022-11-04T00:06:55.208Z,10.10
2022-11-04T00:09:25.117Z,10.10
2022-11-04T00:12:11.531Z,10.00
2022-11-04T00:14:40.008Z,9.90
2022-11-04T00:17:22.027Z,9.80
2022-11-04T00:20:11.074Z,9.90
2022-11-04T00:22:57.734Z,10.00
2022-11-04T00:25:43.863Z,10.00
2022-11-04T00:28:31.012Z,10.00
2022-11-04T00:31:22.079Z,10.00
2022-11-04T00:33:50.210Z,10.00
2022-11-04T00:36:19.911Z,10.10
2022-11-04T00:38:48.427Z,10.00
2022-11-04T00:41:28.972Z,10.00
2022-11-04T00:43:58.753Z,10.00
2022-11-04T00:46:27.406Z,9.80
2022-11-04T00:48:55.663Z,9.80
2022-11-04T00:51:25.828Z,9.80
2022-11-04T00:53:54.439Z,9.80
2022-11-04T00:56:23.175Z,9.70
2022-11-04T00:58:51.836Z,9.80
2022-11-04T01:01:21.016Z,9.80
2022-11-04T01:03:52.150Z,9.90
2022-11-04T01:06:22.797Z,9.90
2022-11-04T01:08:57.111Z,9.90
2022-11-04T01:11:26.160Z,9.90
2022-11-04T01:13:54.889Z,10.00
2022-11-04T01:16:23.398Z,9.90
2022-11-04T01:18:51.919Z,9.90
2022-11-04T01:21:20.725Z,9.80
2022-11-04T01:23:48.862Z,9.70
2022-11-04T01:26:20.058Z,9.70
2022-11-04T01:28:48.556Z,9.70
2022-11-04T01:31:19.053Z,9.80
2022-11-04T01:33:47.225Z,9.80
2022-11-04T01:36:15.571Z,9.80
2022-11-04T01:38:43.778Z,9.80
2022-11-04T01:41:17.653Z,9.70
2022-11-04T01:43:51.138Z,9.80
2022-11-04T01:46:27.825Z,9.80
2022-11-04T01:49:00.644Z,9.70
2022-11-04T01:51:31.159Z,9.70
2022-11-04T01:53:59.754Z,9.80
2022-11-04T01:56:29.272Z,9.80
2022-11-04T01:59:04.205Z,9.70
2022-11-04T02:01:32.809Z,9.70
2022-11-04T02:04:22.182Z,9.60
2022-11-04T02:06:52.251Z,9.70
2022-11-04T02:09:22.324Z,9.60
2022-11-04T02:12:08.182Z,9.60
2022-11-04T02:14:38.306Z,9.60
2022-11-04T02:17:23.130Z,9.60
2022-11-04T02:20:09.835Z,9.70
2022-11-04T02:23:16.383Z,9.60
2022-11-04T02:26:21.424Z,9.50
2022-11-04T02:29:27.735Z,9.40
2022-11-04T02:32:07.651Z,9.50
2022-11-04T02:34:44.424Z,9.50
2022-11-04T02:37:19.067Z,9.50
2022-11-04T02:39:53.656Z,9.50
2022-11-04T02:42:30.501Z,9.60
2022-11-04T02:45:13.884Z,9.60
2022-11-04T02:47:47.058Z,9.60
2022-11-04T02:50:22.364Z,9.50
2022-11-04T02:52:58.782Z,9.70
2022-11-04T02:55:31.019Z,9.70
2022-11-04T02:58:04.042Z,9.70
2022-11-04T03:00:34.417Z,9.70
2022-11-04T03:03:09.342Z,9.70
2022-11-04T03:05:40.764Z,9.80
2022-11-04T03:08:15.853Z,9.70
2022-11-04T03:10:47.095Z,9.80
2022-11-04T03:13:18.140Z,9.80
2022-11-04T03:15:52.162Z,9.90
2022-11-04T03:18:31.537Z,9.90
2022-11-04T03:21:03.122Z,10.00
2022-11-04T03:23:31.741Z,9.90
2022-11-04T03:26:08.701Z,9.90
2022-11-04T03:28:44.865Z,9.90
2022-11-04T03:31:21.120Z,9.80
2022-11-04T03:33:51.811Z,9.80
2022-11-04T03:36:21.484Z,9.60
2022-11-04T03:38:50.607Z,9.60
2022-11-04T03:41:24.581Z,9.80
2022-11-04T03:43:53.124Z,9.70
2022-11-04T03:46:23.679Z,9.80
2022-11-04T03:48:54.011Z,9.80
2022-11-04T03:51:22.167Z,9.70
2022-11-04T03:53:50.628Z,9.70
2022-11-04T03:56:37.581Z,9.80
2022-11-04T03:59:22.901Z,10.00
2022-11-04T04:01:57.275Z,9.90
2022-11-04T04:04:30.173Z,10.00
2022-11-04T04:07:03.316Z,10.20
2022-11-04T04:09:39.022Z,10.10
2022-11-04T04:12:15.539Z,10.10
2022-11-04T04:14:50.222Z,10.10
2022-11-04T04:17:22.847Z,10.00
2022-11-04T04:19:55.981Z,10.10
2022-11-04T04:22:28.337Z,10.10
2022-11-04T04:25:18.275Z,10.20
2022-11-04T04:27:47.663Z,10.30
2022-11-04T04:30:18.116Z,10.30
2022-11-04T04:32:50.903Z,10.30
2022-11-04T04:35:41.281Z,10.30
2022-11-04T04:38:33.759Z,10.20
2022-11-04T04:41:25.459Z,10.20
2022-11-04T04:44:11.458Z,10.00
2022-11-04T04:46:42.289Z,10.00
2022-11-04T04:49:11.800Z,10.00
2022-11-04T04:51:44.110Z,10.20
2022-11-04T04:54:12.278Z,10.10
2022-11-04T04:56:40.722Z,10.20
2022-11-04T04:59:08.989Z,10.20
2022-11-04T05:01:37.514Z,10.10
2022-11-04T05:04:05.877Z,10.10
2022-11-04T05:06:35.602Z,10.10
2022-11-04T05:09:03.944Z,10.20
2022-11-04T05:11:32.095Z,10.10
2022-11-04T05:14:00.459Z,10.20
2022-11-04T05:16:28.685Z,10.20
2022-11-04T05:18:56.897Z,10.20
2022-11-04T05:21:25.298Z,10.30
2022-11-04T05:23:54.761Z,10.40
2022-11-04T05:26:22.894Z,10.30
2022-11-04T05:28:51.051Z,10.40
2022-11-04T05:31:19.312Z,10.40
2022-11-04T05:33:47.486Z,10.40
2022-11-04T05:36:17.512Z,10.20
2022-11-04T05:38:51.014Z,10.20
2022-11-04T05:41:26.690Z,10.30
2022-11-04T05:43:55.709Z,10.40
2022-11-04T05:46:24.322Z,10.40
2022-11-04T05:48:52.465Z,10.50
2022-11-04T05:51:22.869Z,10.60
2022-11-04T05:53:51.305Z,10.60
2022-11-04T05:56:21.047Z,10.60
2022-11-04T05:58:49.196Z,10.60
2022-11-04T06:01:27.709Z,10.60
2022-11-04T06:03:57.209Z,10.60
2022-11-04T06:06:28.221Z,10.60
2022-11-04T06:08:56.887Z,10.60
2022-11-04T06:11:27.342Z,10.60
2022-11-04T06:13:55.989Z,10.60
2022-11-04T06:16:25.149Z,10.60
2022-11-04T06:18:53.858Z,10.60
2022-11-04T06:21:28.514Z,10.60
2022-11-04T06:23:58.569Z,10.80
2022-11-04T06:26:30.853Z,10.70
2022-11-04T06:28:59.451Z,10.80
2022-11-04T06:31:27.825Z,10.80
2022-11-04T06:33:55.926Z,10.80
2022-11-04T06:36:24.315Z,10.80
2022-11-04T06:38:52.575Z,10.90
2022-11-04T06:41:20.947Z,11.00
2022-11-04T06:43:50.729Z,10.90
2022-11-04T06:46:30.645Z,10.80
2022-11-04T06:48:59.127Z,10.90
2022-11-04T06:51:27.353Z,10.80
2022-11-04T06:53:55.607Z,10.80
2022-11-04T06:56:24.043Z,10.80
2022-11-04T06:58:55.057Z,10.80
2022-11-04T07:01:26.646Z,10.90
2022-11-04T07:03:57.141Z,11.00
2022-11-04T07:06:27.251Z,11.00
2022-11-04T07:08:55.423Z,10.90
2022-11-04T07:11:25.147Z,11.00
2022-11-04T07:13:54.728Z,11.00
2022-11-04T07:16:22.944Z,11.00
2022-11-04T07:18:51.962Z,11.10
2022-11-04T07:21:20.396Z,11.10
2022-11-04T07:23:48.598Z,11.20
2022-11-04T07:26:16.838Z,11.30
2022-11-04T07:28:45.030Z,11.30
2022-11-04T07:31:15.817Z,11.40
2022-11-04T07:33:44.294Z,11.40
2022-11-04T07:36:14.143Z,11.40
2022-11-04T07:38:42.295Z,11.50
2022-11-04T07:41:11.272Z,11.50
2022-11-04T07:43:39.450Z,11.50
2022-11-04T07:46:10.776Z,11.60
2022-11-04T07:48:40.557Z,11.70
2022-11-04T07:51:10.444Z,11.70
2022-11-04T07:53:38.618Z,11.70
2022-11-04T07:56:08.444Z,11.80
2022-11-04T07:58:36.699Z,11.80
2022-11-04T08:01:07.221Z,11.80
2022-11-04T08:03:36.931Z,11.80
2022-11-04T08:06:08.511Z,11.90
2022-11-04T08:08:37.643Z,11.90
2022-11-04T08:11:10.380Z,11.90
2022-11-04T08:13:41.306Z,12.00
2022-11-04T08:16:13.165Z,12.00
2022-11-04T08:18:42.974Z,12.10
2022-11-04T08:21:13.036Z,12.10
2022-11-04T08:23:41.526Z,12.10
2022-11-04T08:26:11.297Z,12.20
2022-11-04T08:28:40.197Z,12.20
2022-11-04T08:31:10.709Z,12.20
2022-11-04T08:33:38.873Z,12.30
2022-11-04T08:36:13.794Z,12.30
2022-11-04T08:38:43.902Z,12.40
2022-11-04T08:41:13.283Z,12.30
2022-11-04T08:43:41.733Z,12.40
2022-11-04T08:46:11.562Z,12.30
2022-11-04T08:48:41.234Z,12.30
2022-11-04T08:51:14.633Z,12.30
2022-11-04T08:53:44.826Z,12.30
2022-11-04T08:56:14.928Z,12.30
2022-11-04T08:58:43.309Z,12.30
2022-11-04T09:01:12.860Z,12.30
2022-11-04T09:03:42.635Z,12.40
2022-11-04T09:06:12.553Z,12.50
2022-11-04T09:08:41.331Z,12.50
2022-11-04T09:11:12.270Z,12.50
2022-11-04T09:13:41.157Z,12.50
2022-11-04T09:16:12.112Z,12.50
2022-11-04T09:18:40.642Z,12.60
2022-11-04T09:21:10.404Z,12.70
2022-11-04T09:23:38.868Z,12.80
2022-11-04T09:26:13.880Z,12.80
2022-11-04T09:28:42.559Z,12.80
2022-11-04T09:31:13.520Z,12.80
2022-11-04T09:33:42.076Z,12.90
2022-11-04T09:36:11.989Z,12.80
2022-11-04T09:38:42.161Z,12.90
2022-11-04T09:41:39.759Z,12.90
2022-11-04T09:44:18.236Z,12.80
2022-11-04T09:46:49.275Z,12.80
2022-11-04T09:49:17.971Z,12.80
2022-11-04T09:51:56.564Z,12.80
2022-11-04T09:54:27.924Z,12.80
2022-11-04T09:57:00.453Z,12.80
2022-11-04T09:59:30.828Z,12.60
2022-11-04T10:02:23.005Z,12.70
2022-11-04T10:05:02.651Z,12.70
2022-11-04T10:07:55.231Z,12.70
2022-11-04T10:10:35.682Z,12.50
2022-11-04T10:13:22.076Z,12.50
2022-11-04T10:16:17.452Z,12.40
2022-11-04T10:18:57.339Z,12.60
2022-11-04T10:21:33.669Z,12.50
2022-11-04T10:24:18.719Z,12.50
2022-11-04T10:26:50.520Z,12.20
2022-11-04T10:29:29.709Z,12.30
2022-11-04T10:32:01.112Z,12.30
2022-11-04T10:34:43.075Z,12.30
2022-11-04T10:37:12.886Z,12.20
2022-11-04T10:39:46.178Z,12.30
2022-11-04T10:42:16.711Z,12.10
2022-11-04T10:44:47.828Z,12.10
2022-11-04T10:47:27.396Z,12.10
2022-11-04T10:50:27.617Z,12.10
2022-11-04T10:52:52.832Z,12.20
2022-11-04T10:55:36.993Z,12.20
2022-11-04T10:58:13.605Z,12.20
2022-11-04T11:00:43.304Z,12.30
2022-11-04T11:03:26.189Z,12.30
2022-11-04T11:05:56.087Z,12.40
2022-11-04T11:08:33.805Z,12.30
2022-11-04T11:11:02.499Z,12.40
2022-11-04T11:13:37.777Z,12.50
2022-11-04T11:16:11.920Z,12.40
2022-11-04T11:18:41.753Z,12.50
2022-11-04T11:21:13.934Z,12.60
2022-11-04T11:23:45.358Z,12.80
2022-11-04T11:26:17.340Z,12.80
2022-11-04T11:28:57.400Z,12.90
2022-11-04T11:31:37.493Z,13.00
2022-11-04T11:34:08.094Z,13.00
2022-11-04T11:36:39.494Z,13.20
2022-11-04T11:39:16.484Z,13.10
2022-11-04T11:41:54.390Z,13.20
2022-11-04T11:44:31.632Z,13.20
2022-11-04T11:47:03.642Z,13.40
2022-11-04T11:49:34.563Z,13.30
2022-11-04T11:52:18.751Z,13.40
2022-11-04T11:54:50.877Z,13.40
2022-11-04T11:57:32.746Z,13.40
2022-11-04T12:03:02.544Z,13.20
2022-11-04T12:11:57.019Z,13.60
2022-11-04T12:14:36.465Z,13.70
2022-11-04T12:17:14.157Z,13.80
2022-11-04T12:19:57.563Z,13.80
2022-11-04T12:22:37.141Z,13.80
2022-11-04T12:25:18.277Z,13.90
2022-11-04T12:27:52.882Z,13.80
2022-11-04T12:30:32.309Z,14.00
2022-11-04T12:33:16.165Z,14.10
2022-11-04T12:36:00.788Z,14.10
2022-11-04T12:38:44.131Z,14.10
2022-11-04T12:41:46.754Z,14.20
2022-11-04T12:44:18.066Z,14.20
2022-11-04T12:46:54.530Z,14.20
2022-11-04T12:49:39.808Z,14.20
2022-11-04T12:52:21.095Z,14.20
2022-11-04T12:55:06.184Z,14.30
2022-11-04T12:57:43.153Z,14.30
2022-11-04T13:00:15.049Z,14.20
2022-11-04T13:02:49.597Z,14.10
2022-11-04T13:05:30.007Z,14.10
2022-11-04T13:08:08.657Z,14.10
2022-11-04T13:10:47.611Z,14.00
2022-11-04T13:13:19.727Z,14.00
2022-11-04T13:15:51.974Z,14.10
2022-11-04T13:18:22.617Z,14.10
2022-11-04T13:21:02.102Z,14.30
2022-11-04T13:23:39.049Z,14.50
2022-11-04T13:26:12.305Z,14.50
2022-11-04T13:28:41.955Z,14.60
2022-11-04T13:31:16.039Z,14.70
2022-11-04T13:33:51.415Z,14.80
2022-11-04T13:36:29.371Z,14.80
2022-11-04T13:39:01.534Z,14.70
2022-11-04T13:42:03.428Z,14.80
2022-11-04T13:44:35.989Z,14.90
2022-11-04T13:47:16.688Z,14.80
2022-11-04T13:49:51.480Z,14.80
2022-11-04T13:52:20.443Z,14.60
2022-11-04T13:54:55.626Z,14.50
2022-11-04T13:57:26.813Z,14.30
2022-11-04T14:00:23.927Z,14.20
2022-11-04T14:02:53.085Z,14.00
2022-11-04T14:05:47.042Z,14.10
2022-11-04T14:08:16.894Z,13.90
2022-11-04T14:11:02.620Z,13.80
2022-11-04T14:14:04.270Z,13.80
2022-11-04T14:16:41.731Z,13.70
2022-11-04T14:19:58.164Z,13.60
2022-11-04T14:22:36.631Z,13.50
2022-11-04T14:25:21.840Z,13.20
2022-11-04T14:27:53.395Z,12.80
2022-11-04T14:30:35.298Z,12.70
2022-11-04T14:33:06.515Z,12.70
2022-11-04T14:35:36.502Z,12.80
2022-11-04T14:38:19.941Z,12.70
2022-11-04T14:40:52.274Z,12.60
2022-11-04T14:43:32.828Z,12.60
2022-11-04T14:46:02.857Z,12.50
2022-11-04T14:48:32.141Z,12.50
2022-11-04T14:51:00.509Z,12.60
2022-11-04T14:53:33.809Z,12.60
2022-11-04T14:56:07.798Z,12.50
2022-11-04T14:58:38.778Z,12.50
2022-11-04T15:01:11.959Z,12.50
2022-11-04T15:06:40.688Z,12.70
2022-11-04T15:09:22.001Z,12.70
2022-11-04T15:12:07.702Z,12.60
2022-11-04T15:14:38.745Z,12.30
2022-11-04T15:17:07.163Z,12.20
2022-11-04T15:19:36.983Z,11.90
2022-11-04T15:22:07.721Z,11.70
2022-11-04T15:24:36.667Z,11.60
2022-11-04T15:27:07.543Z,11.60
2022-11-04T15:29:37.110Z,11.60
2022-11-04T15:32:06.548Z,11.70
2022-11-04T15:34:36.839Z,11.80
2022-11-04T15:37:06.648Z,11.80
2022-11-04T15:39:38.822Z,11.70
2022-11-04T15:42:29.631Z,11.80
2022-11-04T15:44:59.378Z,11.90
2022-11-04T15:47:29.391Z,12.00
2022-11-04T15:50:16.338Z,12.00
2022-11-04T15:52:52.507Z,12.00
2022-11-04T15:55:23.496Z,12.00
2022-11-04T15:57:52.386Z,12.00
2022-11-04T16:00:25.886Z,12.00
2022-11-04T16:02:56.350Z,11.90
2022-11-04T16:05:28.881Z,11.90
2022-11-04T16:08:14.448Z,12.00
2022-11-04T16:10:43.557Z,12.00
2022-11-04T16:13:24.408Z,11.90
2022-11-04T16:16:09.589Z,12.00
2022-11-04T16:18:40.263Z,12.00
2022-11-04T16:21:12.107Z,12.10
2022-11-04T16:23:45.704Z,12.10
2022-11-04T16:26:15.090Z,12.00
2022-11-04T16:28:44.292Z,11.90
2022-11-04T16:31:27.559Z,11.90
2022-11-04T16:33:56.344Z,11.80
2022-11-04T16:36:24.640Z,11.80
2022-11-04T16:38:56.781Z,11.80
2022-11-04T16:41:26.550Z,11.80
2022-11-04T16:43:55.795Z,11.70
2022-11-04T16:46:25.438Z,11.70
2022-11-04T16:48:53.593Z,11.60
2022-11-04T16:51:23.557Z,11.60
2022-11-04T16:53:52.935Z,11.50
2022-11-04T16:56:24.538Z,11.50
2022-11-04T16:58:53.046Z,11.50
2022-11-04T17:01:21.609Z,11.40
2022-11-04T17:03:51.269Z,11.40
2022-11-04T17:06:20.094Z,11.30
2022-11-04T17:08:48.645Z,11.30
2022-11-04T17:11:16.770Z,11.20
2022-11-04T17:13:44.935Z,11.10
2022-11-04T17:16:15.477Z,11.20
2022-11-04T17:18:43.826Z,11.10
2022-11-04T17:21:18.166Z,11.00
2022-11-04T17:23:46.503Z,11.00
2022-11-04T17:26:14.729Z,10.90
2022-11-04T17:28:42.856Z,10.90
2022-11-04T17:31:17.556Z,10.90
2022-11-04T17:33:45.943Z,10.80
2022-11-04T17:36:18.829Z,10.80
2022-11-04T17:38:47.482Z,10.70
2022-11-04T17:41:33.158Z,10.70
2022-11-04T17:44:01.541Z,10.70
2022-11-04T17:46:37.909Z,10.70
2022-11-04T17:49:09.497Z,10.60
2022-11-04T17:51:39.620Z,10.70
2022-11-04T17:54:08.733Z,10.60
2022-11-04T17:56:38.306Z,10.60
2022-11-04T17:59:06.824Z,10.50
2022-11-04T18:01:36.619Z,10.50
2022-11-04T18:04:05.737Z,10.50
2022-11-04T18:06:39.395Z,10.50
2022-11-04T18:09:11.051Z,10.40
2022-11-04T18:11:57.746Z,10.40
2022-11-04T18:14:26.070Z,10.40
2022-11-04T18:16:54.463Z,10.40
2022-11-04T18:19:24.628Z,10.40
2022-11-04T18:21:52.907Z,10.30
2022-11-04T18:24:22.577Z,10.30
2022-11-04T18:26:51.314Z,10.30
2022-11-04T18:29:19.497Z,10.30
2022-11-04T18:31:49.351Z,10.40
2022-11-04T18:34:19.614Z,10.30
2022-11-04T18:36:48.812Z,10.40
2022-11-04T18:39:19.053Z,10.40
2022-11-04T18:41:48.872Z,10.40
2022-11-04T18:44:18.290Z,10.40
2022-11-04T18:46:46.960Z,10.40
2022-11-04T18:49:15.809Z,10.40
2022-11-04T18:51:45.432Z,10.30
2022-11-04T18:54:14.804Z,10.30
2022-11-04T18:56:43.986Z,10.10
2022-11-04T18:59:15.703Z,10.10
2022-11-04T19:01:45.598Z,10.10
2022-11-04T19:04:14.558Z,10.20
2022-11-04T19:06:45.513Z,10.20
2022-11-04T19:12:21.309Z,10.10
2022-11-04T19:14:51.112Z,10.00
2022-11-04T19:17:20.012Z,10.10
2022-11-04T19:19:48.301Z,10.10
2022-11-04T19:22:16.483Z,10.10
2022-11-04T19:24:46.015Z,10.10
2022-11-04T19:27:14.502Z,10.10
2022-11-04T19:29:42.710Z,10.10
2022-11-04T19:32:14.198Z,10.10
2022-11-04T19:34:42.848Z,10.10
2022-11-04T19:37:11.757Z,10.10
2022-11-04T19:39:40.616Z,10.10
2022-11-04T19:42:26.892Z,10.00
2022-11-04T19:44:55.093Z,9.90
2022-11-04T19:47:24.621Z,9.90
2022-11-04T19:49:52.763Z,9.90
2022-11-04T19:52:21.007Z,9.90
2022-11-04T19:54:49.269Z,9.90
2022-11-04T19:57:17.556Z,9.90
2022-11-04T19:59:45.817Z,9.90
2022-11-04T20:02:15.702Z,9.90
2022-11-04T20:04:46.372Z,10.00
2022-11-04T20:07:14.728Z,10.00
2022-11-04T20:09:43.197Z,10.10
2022-11-04T20:12:28.540Z,10.10
2022-11-04T20:14:57.853Z,10.00
2022-11-04T20:17:26.006Z,10.10
2022-11-04T20:19:55.503Z,10.10
2022-11-04T20:22:23.807Z,10.10
2022-11-04T20:24:52.543Z,9.90
2022-11-04T20:27:20.660Z,9.80
2022-11-04T20:29:48.798Z,9.90
2022-11-04T20:32:17.225Z,9.80
2022-11-04T20:34:45.439Z,9.70
2022-11-04T20:37:15.001Z,9.70
2022-11-04T20:39:43.830Z,9.70
2022-11-04T20:42:12.035Z,9.80
2022-11-04T20:44:40.136Z,9.90
2022-11-04T20:47:08.413Z,9.90
2022-11-04T20:49:36.561Z,9.90
2022-11-04T20:52:04.751Z,9.90
2022-11-04T20:54:34.637Z,10.00
2022-11-04T20:57:02.841Z,9.90
2022-11-04T20:59:31.184Z,10.00
2022-11-04T21:02:00.360Z,10.00
2022-11-04T21:04:34.785Z,10.00
2022-11-04T21:07:04.879Z,9.90
2022-11-04T21:09:34.468Z,9.90
2022-11-04T21:12:02.740Z,9.90
2022-11-04T21:14:34.688Z,10.00
2022-11-04T21:17:03.168Z,10.00
2022-11-04T21:19:31.383Z,10.10
2022-11-04T21:21:59.476Z,10.10
2022-11-04T21:24:27.763Z,10.00
2022-11-04T21:26:57.261Z,10.00
2022-11-04T21:29:25.410Z,10.10
2022-11-04T21:31:53.584Z,10.10
2022-11-04T21:34:21.735Z,10.00
2022-11-04T21:36:52.202Z,10.00
2022-11-04T21:39:20.413Z,10.00
2022-11-04T21:41:48.608Z,9.90
2022-11-04T21:44:18.131Z,9.90
2022-11-04T21:46:48.457Z,9.80
2022-11-04T21:49:16.642Z,9.80
2022-11-04T21:51:44.857Z,9.80
2022-11-04T21:54:13.320Z,9.80
2022-11-04T21:56:41.447Z,9.70
2022-11-04T21:59:17.930Z,9.80
2022-11-04T22:01:47.951Z,9.70
2022-11-04T22:04:16.559Z,9.60
2022-11-04T22:06:45.504Z,9.60
2022-11-04T22:09:14.230Z,9.60
2022-11-04T22:11:42.661Z,9.50
2022-11-04T22:14:13.827Z,9.50
2022-11-04T22:16:42.002Z,9.50
2022-11-04T22:19:14.545Z,9.50
2022-11-04T22:21:44.221Z,9.50
2022-11-04T22:24:13.385Z,9.40
2022-11-04T22:26:42.091Z,9.40
2022-11-04T22:29:11.633Z,9.40
2022-11-04T22:31:42.731Z,9.30
2022-11-04T22:34:12.268Z,9.30
2022-11-04T22:36:40.783Z,9.30
2022-11-04T22:39:16.088Z,9.20
2022-11-04T22:41:46.391Z,9.30
2022-11-04T22:44:15.127Z,9.20
2022-11-04T22:46:43.603Z,9.20
2022-11-04T22:49:14.501Z,9.10
2022-11-04T22:51:43.206Z,9.10
2022-11-04T22:54:11.513Z,9.10
2022-11-04T22:56:39.800Z,9.10
2022-11-04T22:59:08.346Z,9.10
2022-11-04T23:01:36.580Z,9.10
2022-11-04T23:04:05.540Z,9.00
2022-11-04T23:06:35.140Z,9.00
2022-11-04T23:09:03.397Z,9.00
2022-11-04T23:11:50.472Z,8.90
2022-11-04T23:14:49.359Z,8.90
2022-11-04T23:17:36.657Z,8.90
2022-11-04T23:20:08.155Z,8.80
2022-11-04T23:22:54.909Z,8.80
2022-11-04T23:25:23.434Z,8.90
2022-11-04T23:28:11.544Z,8.80
2022-11-04T23:30:42.214Z,8.80
2022-11-04T23:33:13.120Z,8.80
2022-11-04T23:36:01.724Z,8.70
2022-11-04T23:38:32.153Z,8.70
2022-11-04T23:41:19.957Z,8.60
2022-11-04T23:43:48.301Z,8.60
2022-11-04T23:46:39.605Z,8.60
2022-11-04T23:49:28.786Z,8.60
2022-11-04T23:52:14.478Z,8.50
2022-11-04T23:55:01.119Z,8.40
2022-11-04T23:57:46.533Z,8.40
